createdAt,value
2022-08-23T00:00:44.337Z,5.97
2022-08-23T00:03:11.334Z,7.40
2022-08-23T00:05:37.884Z,8.23
2022-08-23T00:08:04.783Z,7.00
2022-08-23T00:10:31.288Z,8.03
2022-08-23T00:12:58.094Z,9.50
2022-08-23T00:15:25.274Z,9.57
2022-08-23T00:17:51.794Z,10.17
2022-08-23T00:20:19.617Z,10.10
2022-08-23T00:22:46.295Z,9.30
2022-08-23T00:25:13.620Z,10.23
2022-08-23T00:27:40.317Z,8.90
2022-08-23T00:30:08.692Z,8.53
2022-08-23T00:32:37.085Z,7.30
2022-08-23T00:35:04.363Z,7.40
2022-08-23T00:37:32.393Z,7.43
2022-08-23T00:39:59.281Z,7.20
2022-08-23T00:43:06.213Z,7.83
2022-08-23T00:46:10.121Z,8.07
2022-08-23T00:48:38.242Z,7.70
2022-08-23T00:51:16.891Z,7.50
2022-08-23T00:53:44.936Z,6.80
2022-08-23T00:56:13.307Z,7.27
2022-08-23T00:58:39.956Z,6.70
2022-08-23T01:01:06.612Z,7.53
2022-08-23T01:03:38.902Z,7.80
2022-08-23T01:06:24.442Z,6.60
2022-08-23T01:08:59.783Z,7.93
2022-08-23T01:11:33.219Z,6.90
2022-08-23T01:14:11.964Z,7.00
2022-08-23T01:16:41.534Z,6.70
2022-08-23T01:19:12.830Z,7.00
2022-08-23T01:21:43.553Z,6.60
2022-08-23T01:24:24.124Z,6.20
2022-08-23T01:26:58.272Z,6.57
2022-08-23T01:29:25.046Z,6.10
2022-08-23T01:31:52.006Z,6.13
2022-08-23T01:34:18.571Z,6.77
2022-08-23T01:36:45.814Z,5.60
2022-08-23T01:39:12.378Z,7.60
2022-08-23T01:41:40.302Z,8.57
2022-08-23T01:44:09.069Z,7.77
2022-08-23T01:46:36.512Z,9.60
2022-08-23T01:49:08.283Z,12.17
2022-08-23T01:51:35.544Z,12.20
2022-08-23T01:54:02.083Z,12.70
2022-08-23T01:56:38.534Z,10.37
2022-08-23T01:59:09.541Z,7.70
2022-08-23T02:01:41.149Z,6.63
2022-08-23T02:04:07.782Z,6.27
2022-08-23T02:06:34.588Z,6.20
2022-08-23T02:09:04.337Z,5.93
2022-08-23T02:11:36.356Z,6.50
2022-08-23T02:14:05.617Z,6.83
2022-08-23T02:16:42.497Z,6.77
2022-08-23T02:19:20.613Z,6.17
2022-08-23T02:21:47.222Z,5.60
2022-08-23T02:24:16.776Z,5.50
2022-08-23T02:26:46.433Z,6.67
2022-08-23T02:29:14.924Z,6.60
2022-08-23T02:31:44.150Z,6.00
2022-08-23T02:34:14.440Z,5.77
2022-08-23T02:36:41.941Z,7.20
2022-08-23T02:39:09.617Z,5.53
2022-08-23T02:41:36.699Z,5.60
2022-08-23T02:44:04.206Z,6.20
2022-08-23T02:46:30.844Z,6.33
2022-08-23T02:48:57.535Z,6.73
2022-08-23T02:51:25.444Z,6.90
2022-08-23T02:53:52.686Z,7.57
2022-08-23T02:56:22.081Z,6.67
2022-08-23T02:58:54.154Z,6.83
2022-08-23T03:01:25.187Z,6.93
2022-08-23T03:03:53.484Z,6.20
2022-08-23T03:06:24.545Z,6.40
2022-08-23T03:08:52.726Z,6.47
2022-08-23T03:11:21.653Z,5.87
2022-08-23T03:13:50.770Z,5.43
2022-08-23T03:16:18.054Z,5.20
2022-08-23T03:18:47.281Z,6.97
2022-08-23T03:21:14.144Z,5.60
2022-08-23T03:23:40.996Z,5.60
2022-08-23T03:26:09.218Z,6.07
2022-08-23T03:28:36.735Z,5.90
2022-08-23T03:31:04.407Z,5.50
2022-08-23T03:33:35.155Z,7.23
2022-08-23T03:36:03.530Z,6.13
2022-08-23T03:38:30.863Z,6.60
2022-08-23T03:40:58.364Z,6.30
2022-08-23T03:43:24.939Z,6.07
2022-08-23T03:45:51.619Z,5.47
2022-08-23T03:48:19.466Z,6.30
2022-08-23T03:50:46.382Z,6.67
2022-08-23T03:53:13.189Z,6.60
2022-08-23T03:55:42.870Z,6.43
2022-08-23T03:58:13.023Z,7.03
2022-08-23T04:00:39.574Z,6.67
2022-08-23T04:03:06.202Z,6.10
2022-08-23T04:05:42.251Z,5.80
2022-08-23T04:08:14.985Z,6.33
2022-08-23T04:10:46.177Z,5.90
2022-08-23T04:13:12.777Z,6.00
2022-08-23T04:15:39.719Z,6.63
2022-08-23T04:18:09.956Z,5.43
2022-08-23T04:20:36.540Z,7.07
2022-08-23T04:23:04.908Z,5.90
2022-08-23T04:25:38.949Z,6.83
2022-08-23T04:28:06.690Z,6.00
2022-08-23T04:30:33.875Z,7.17
2022-08-23T04:33:01.879Z,6.13
2022-08-23T04:35:30.631Z,5.83
2022-08-23T04:37:57.182Z,5.93
2022-08-23T04:40:43.227Z,6.50
2022-08-23T04:43:09.841Z,6.67
2022-08-23T04:45:40.478Z,6.13
2022-08-23T04:48:12.261Z,6.53
2022-08-23T04:50:42.501Z,6.23
2022-08-23T04:53:14.776Z,6.87
2022-08-23T04:55:56.105Z,6.40
2022-08-23T04:58:22.795Z,7.10
2022-08-23T05:00:52.354Z,7.00
2022-08-23T05:03:24.280Z,5.37
2022-08-23T05:05:52.116Z,6.43
2022-08-23T05:08:20.440Z,6.33
2022-08-23T05:10:47.150Z,7.73
2022-08-23T05:13:14.213Z,7.33
2022-08-23T05:15:40.762Z,6.30
2022-08-23T05:18:07.517Z,6.60
2022-08-23T05:20:36.185Z,7.17
2022-08-23T05:23:03.375Z,6.97
2022-08-23T05:25:52.493Z,6.33
2022-08-23T05:28:44.867Z,7.20
2022-08-23T05:31:16.063Z,7.57
2022-08-23T05:33:46.879Z,6.40
2022-08-23T05:36:17.599Z,6.20
2022-08-23T05:38:44.562Z,6.70
2022-08-23T05:41:12.877Z,6.23
2022-08-23T05:43:39.566Z,6.73
2022-08-23T05:46:06.154Z,6.57
2022-08-23T05:48:38.825Z,6.80
2022-08-23T05:51:12.615Z,6.67
2022-08-23T05:53:39.370Z,6.67
2022-08-23T05:56:13.765Z,7.70
2022-08-23T05:58:41.881Z,6.60
2022-08-23T06:01:09.208Z,6.97
2022-08-23T06:03:35.935Z,7.27
2022-08-23T06:06:03.010Z,7.40
2022-08-23T06:08:29.643Z,7.97
2022-08-23T06:11:00.875Z,6.97
2022-08-23T06:13:32.967Z,6.40
2022-08-23T06:15:59.523Z,7.07
2022-08-23T06:18:26.994Z,7.40
2022-08-23T06:21:06.530Z,6.90
2022-08-23T06:23:49.458Z,6.10
2022-08-23T06:26:18.376Z,6.50
2022-08-23T06:28:51.005Z,6.10
2022-08-23T06:31:39.100Z,6.47
2022-08-23T06:34:10.067Z,6.50
2022-08-23T06:36:55.809Z,5.80
2022-08-23T06:39:41.508Z,5.90
2022-08-23T06:42:41.750Z,5.70
2022-08-23T06:45:09.333Z,6.67
2022-08-23T06:47:38.898Z,5.47
2022-08-23T06:50:05.633Z,5.90
2022-08-23T06:52:52.969Z,5.40
2022-08-23T06:55:41.699Z,5.10
2022-08-23T06:58:31.075Z,5.47
2022-08-23T07:01:44.503Z,5.40
2022-08-23T07:04:23.022Z,6.67
2022-08-23T07:07:11.817Z,6.17
2022-08-23T07:09:39.573Z,5.70
2022-08-23T07:12:06.652Z,4.80
2022-08-23T07:14:33.773Z,6.07
2022-08-23T07:17:01.262Z,5.93
2022-08-23T07:19:30.038Z,4.50
2022-08-23T07:21:57.765Z,4.90
2022-08-23T07:24:28.157Z,5.30
2022-08-23T07:26:57.387Z,5.63
2022-08-23T07:29:24.283Z,5.40
2022-08-23T07:31:53.335Z,5.43
2022-08-23T07:34:20.938Z,5.33
2022-08-23T07:36:48.654Z,4.90
2022-08-23T07:39:16.606Z,6.60
2022-08-23T07:41:43.634Z,5.40
2022-08-23T07:44:10.803Z,5.83
2022-08-23T07:46:40.289Z,5.40
2022-08-23T07:49:08.255Z,5.27
2022-08-23T07:51:40.087Z,4.60
2022-08-23T07:54:10.156Z,4.13
2022-08-23T07:57:02.837Z,4.60
2022-08-23T07:59:49.822Z,3.70
2022-08-23T08:02:19.056Z,3.60
2022-08-23T08:04:45.824Z,3.30
2022-08-23T08:07:21.114Z,3.17
2022-08-23T08:09:55.385Z,2.90
2022-08-23T08:12:24.251Z,3.23
2022-08-23T08:14:53.634Z,3.33
2022-08-23T08:17:27.566Z,3.70
2022-08-23T08:20:12.887Z,3.93
2022-08-23T08:22:51.019Z,3.13
2022-08-23T08:26:05.755Z,3.50
2022-08-23T08:28:34.028Z,3.30
2022-08-23T08:31:00.603Z,2.77
2022-08-23T08:33:30.869Z,3.17
2022-08-23T08:36:00.446Z,3.30
2022-08-23T08:38:30.690Z,3.20
2022-08-23T08:41:17.900Z,3.17
2022-08-23T08:43:44.471Z,2.67
2022-08-23T08:46:17.040Z,3.20
2022-08-23T08:48:47.111Z,2.80
2022-08-23T08:51:20.002Z,2.77
2022-08-23T08:53:48.687Z,2.70
2022-08-23T08:56:32.246Z,2.00
2022-08-23T08:59:19.928Z,1.93
2022-08-23T09:01:48.619Z,2.10
2022-08-23T09:04:22.576Z,3.27
2022-08-23T09:07:07.005Z,2.03
2022-08-23T09:09:52.035Z,2.53
2022-08-23T09:12:21.645Z,2.07
2022-08-23T09:14:51.365Z,2.87
2022-08-23T09:17:25.092Z,2.30
2022-08-23T09:19:52.516Z,2.33
2022-08-23T09:22:23.483Z,2.20
2022-08-23T09:24:51.258Z,1.87
2022-08-23T09:27:24.765Z,1.53
2022-08-23T09:29:56.436Z,2.10
2022-08-23T09:32:29.045Z,2.03
2022-08-23T09:35:14.436Z,2.30
2022-08-23T09:37:54.856Z,1.83
2022-08-23T09:40:33.829Z,1.87
2022-08-23T09:43:06.679Z,1.90
2022-08-23T09:45:35.856Z,1.67
2022-08-23T09:48:04.996Z,2.27
2022-08-23T09:50:39.047Z,1.73
2022-08-23T09:53:14.459Z,1.93
2022-08-23T09:55:44.294Z,1.67
2022-08-23T09:58:20.647Z,1.30
2022-08-23T10:01:01.973Z,2.00
2022-08-23T10:03:29.762Z,1.70
2022-08-23T10:06:04.195Z,1.67
2022-08-23T10:08:43.110Z,1.63
2022-08-23T10:11:28.118Z,1.80
2022-08-23T10:13:56.766Z,2.07
2022-08-23T10:16:35.874Z,1.90
2022-08-23T10:19:18.407Z,1.60
2022-08-23T10:21:57.344Z,1.67
2022-08-23T10:24:29.303Z,1.30
2022-08-23T10:27:33.117Z,2.00
2022-08-23T10:30:05.827Z,1.93
2022-08-23T10:32:38.923Z,1.80
2022-08-23T10:35:17.745Z,1.83
2022-08-23T10:37:53.757Z,2.27
2022-08-23T10:40:20.362Z,1.80
2022-08-23T10:43:05.800Z,1.80
2022-08-23T10:45:35.163Z,1.53
2022-08-23T10:48:17.008Z,1.93
2022-08-23T10:50:55.553Z,2.20
2022-08-23T10:53:26.847Z,1.60
2022-08-23T10:56:03.400Z,1.80
2022-08-23T10:58:47.576Z,2.33
2022-08-23T11:01:17.638Z,2.20
2022-08-23T11:03:51.296Z,2.30
2022-08-23T11:06:24.528Z,1.70
2022-08-23T11:09:01.140Z,1.03
2022-08-23T11:11:46.600Z,1.70
2022-08-23T11:14:28.995Z,1.70
2022-08-23T11:16:57.238Z,2.10
2022-08-23T11:19:43.900Z,1.60
2022-08-23T11:22:23.744Z,1.60
2022-08-23T11:24:58.719Z,1.70
2022-08-23T11:27:33.553Z,1.73
2022-08-23T11:30:20.030Z,1.90
2022-08-23T11:32:57.476Z,1.80
2022-08-23T11:35:28.136Z,1.63
2022-08-23T11:38:03.873Z,1.97
2022-08-23T11:40:55.941Z,2.07
2022-08-23T11:43:31.597Z,2.23
2022-08-23T11:46:16.562Z,2.20
2022-08-23T11:48:45.214Z,2.47
2022-08-23T11:51:14.768Z,1.50
2022-08-23T11:53:47.423Z,1.50
2022-08-23T11:56:33.424Z,1.63
2022-08-23T11:59:18.772Z,1.60
2022-08-23T12:01:47.227Z,1.70
2022-08-23T12:04:30.926Z,1.40
2022-08-23T12:07:01.790Z,1.57
2022-08-23T12:09:28.307Z,1.10
2022-08-23T12:11:54.807Z,1.70
2022-08-23T12:14:30.514Z,1.77
2022-08-23T12:16:58.669Z,2.10
2022-08-23T12:19:31.430Z,1.37
2022-08-23T12:22:05.124Z,1.37
2022-08-23T12:24:33.726Z,1.57
2022-08-23T12:27:03.365Z,1.50
2022-08-23T12:29:32.961Z,2.10
2022-08-23T12:32:11.653Z,1.50
2022-08-23T12:34:43.617Z,1.80
2022-08-23T12:37:33.402Z,1.90
2022-08-23T12:40:02.322Z,1.70
2022-08-23T12:42:33.550Z,1.73
2022-08-23T12:45:13.632Z,1.60
2022-08-23T12:47:43.259Z,1.60
2022-08-23T12:50:15.645Z,1.60
2022-08-23T12:52:42.391Z,1.17
2022-08-23T12:55:16.185Z,1.60
2022-08-23T12:57:43.887Z,1.50
2022-08-23T13:00:18.486Z,1.67
2022-08-23T13:03:05.720Z,1.63
2022-08-23T13:05:32.513Z,1.27
2022-08-23T13:08:01.550Z,1.33
2022-08-23T13:10:28.252Z,1.30
2022-08-23T13:12:54.840Z,1.10
2022-08-23T13:15:40.252Z,1.20
2022-08-23T13:18:06.850Z,1.40
2022-08-23T13:20:33.427Z,1.30
2022-08-23T13:23:00.146Z,1.50
2022-08-23T13:25:31.547Z,1.20
2022-08-23T13:28:01.432Z,1.70
2022-08-23T13:30:29.723Z,1.43
2022-08-23T13:33:08.503Z,1.30
2022-08-23T13:35:38.532Z,1.00
2022-08-23T13:38:10.469Z,1.30
2022-08-23T13:40:46.431Z,1.33
2022-08-23T13:43:15.124Z,1.20
2022-08-23T13:45:49.505Z,1.17
2022-08-23T13:48:19.978Z,1.40
2022-08-23T13:50:46.914Z,1.40
2022-08-23T13:53:23.521Z,1.70
2022-08-23T13:55:54.969Z,1.70
2022-08-23T13:58:39.660Z,1.77
2022-08-23T14:01:11.787Z,2.40
2022-08-23T14:03:38.606Z,1.50
2022-08-23T14:06:05.217Z,1.30
2022-08-23T14:08:31.893Z,1.50
2022-08-23T14:10:58.406Z,1.70
2022-08-23T14:13:27.350Z,1.97
2022-08-23T14:15:56.688Z,1.73
2022-08-23T14:18:25.190Z,1.40
2022-08-23T14:20:52.039Z,1.67
2022-08-23T14:23:18.995Z,1.60
2022-08-23T14:25:45.903Z,1.43
2022-08-23T14:28:13.825Z,1.13
2022-08-23T14:30:40.387Z,1.73
2022-08-23T14:33:07.123Z,1.60
2022-08-23T14:35:33.776Z,1.70
2022-08-23T14:38:04.633Z,1.90
2022-08-23T14:40:31.769Z,1.90
2022-08-23T14:42:58.741Z,1.33
2022-08-23T14:45:25.529Z,2.00
2022-08-23T14:47:52.043Z,1.70
2022-08-23T14:50:18.637Z,2.00
2022-08-23T14:52:46.268Z,1.50
2022-08-23T14:55:13.376Z,1.90
2022-08-23T14:57:40.137Z,2.03
2022-08-23T15:00:09.255Z,2.20
2022-08-23T15:02:36.639Z,2.20
2022-08-23T15:05:03.477Z,2.10
2022-08-23T15:07:30.025Z,1.60
2022-08-23T15:09:56.524Z,1.90
2022-08-23T15:15:12.355Z,1.80
2022-08-23T15:17:44.308Z,1.93
2022-08-23T15:20:10.814Z,1.87
2022-08-23T15:22:40.052Z,2.00
2022-08-23T15:25:12.192Z,1.60
2022-08-23T15:27:38.729Z,1.70
2022-08-23T15:30:05.689Z,1.90
2022-08-23T15:32:32.527Z,1.80
2022-08-23T15:34:59.719Z,1.90
2022-08-23T15:37:26.274Z,2.10
2022-08-23T15:39:52.863Z,2.30
2022-08-23T15:42:20.448Z,1.47
2022-08-23T15:44:47.648Z,1.97
2022-08-23T15:47:21.879Z,2.30
2022-08-23T15:49:48.771Z,1.80
2022-08-23T15:52:15.611Z,1.50
2022-08-23T15:54:42.530Z,1.97
2022-08-23T15:57:13.386Z,1.50
2022-08-23T15:59:40.522Z,1.70
2022-08-23T16:02:07.405Z,2.03
2022-08-23T16:04:35.978Z,2.10
2022-08-23T16:07:06.242Z,1.67
2022-08-23T16:09:33.886Z,2.17
2022-08-23T16:12:00.562Z,1.97
2022-08-23T16:14:27.156Z,1.90
2022-08-23T16:16:56.530Z,1.67
2022-08-23T16:19:23.135Z,1.83
2022-08-23T16:21:52.936Z,1.77
2022-08-23T16:24:20.307Z,1.97
2022-08-23T16:26:51.645Z,1.97
2022-08-23T16:29:18.837Z,1.80
2022-08-23T16:31:46.062Z,1.90
2022-08-23T16:34:13.957Z,1.90
2022-08-23T16:36:41.572Z,2.77
2022-08-23T16:39:10.531Z,2.03
2022-08-23T16:41:37.057Z,1.97
2022-08-23T16:44:03.890Z,1.90
2022-08-23T16:46:30.462Z,2.30
2022-08-23T16:48:57.192Z,2.40
2022-08-23T16:51:23.803Z,1.90
2022-08-23T16:54:01.445Z,1.83
2022-08-23T16:56:29.834Z,2.10
2022-08-23T16:58:56.864Z,1.90
2022-08-23T17:01:23.634Z,1.70
2022-08-23T17:03:50.601Z,1.93
2022-08-23T17:06:17.177Z,1.77
2022-08-23T17:08:43.743Z,1.97
2022-08-23T17:11:11.144Z,2.20
2022-08-23T17:13:37.657Z,2.27
2022-08-23T17:16:04.198Z,2.23
2022-08-23T17:18:31.350Z,2.50
2022-08-23T17:20:58.214Z,2.17
2022-08-23T17:23:24.885Z,1.83
2022-08-23T17:25:51.572Z,2.80
2022-08-23T17:28:18.532Z,1.87
2022-08-23T17:30:45.340Z,2.23
2022-08-23T17:33:11.942Z,2.13
2022-08-23T17:35:39.956Z,2.00
2022-08-23T17:38:06.996Z,2.80
2022-08-23T17:40:38.628Z,2.80
2022-08-23T17:43:05.538Z,2.33
2022-08-23T17:45:46.395Z,2.10
2022-08-23T17:48:13.875Z,2.50
2022-08-23T17:50:43.592Z,2.13
2022-08-23T17:53:11.622Z,2.20
2022-08-23T17:55:39.245Z,2.30
2022-08-23T17:58:07.941Z,2.43
2022-08-23T18:00:35.766Z,2.00
2022-08-23T18:03:02.463Z,2.10
2022-08-23T18:05:31.635Z,2.43
2022-08-23T18:07:58.137Z,2.33
2022-08-23T18:10:25.351Z,2.97
2022-08-23T18:12:52.224Z,3.10
2022-08-23T18:15:18.953Z,2.80
2022-08-23T18:17:45.490Z,2.30
2022-08-23T18:20:12.201Z,2.70
2022-08-23T18:22:38.911Z,2.53
2022-08-23T18:25:07.666Z,2.70
2022-08-23T18:27:52.980Z,3.10
2022-08-23T18:30:20.321Z,2.50
2022-08-23T18:32:46.988Z,2.70
2022-08-23T18:35:13.889Z,2.77
2022-08-23T18:37:40.688Z,2.67
2022-08-23T18:40:09.853Z,2.53
2022-08-23T18:42:37.180Z,2.80
2022-08-23T18:45:05.030Z,3.00
2022-08-23T18:47:31.579Z,3.50
2022-08-23T18:49:58.173Z,3.80
2022-08-23T18:52:24.718Z,2.80
2022-08-23T18:54:51.314Z,3.20
2022-08-23T18:57:17.931Z,2.03
2022-08-23T18:59:44.562Z,3.33
2022-08-23T19:02:11.398Z,3.50
2022-08-23T19:04:38.063Z,3.07
2022-08-23T19:07:05.165Z,3.00
2022-08-23T19:09:31.780Z,2.60
2022-08-23T19:12:00.802Z,3.07
2022-08-23T19:14:28.075Z,2.80
2022-08-23T19:16:55.286Z,2.67
2022-08-23T19:19:22.344Z,2.50
2022-08-23T19:21:50.264Z,3.13
2022-08-23T19:24:17.418Z,2.80
2022-08-23T19:26:47.423Z,2.90
2022-08-23T19:29:15.987Z,3.10
2022-08-23T19:31:45.498Z,3.07
2022-08-23T19:34:12.519Z,2.90
2022-08-23T19:36:49.309Z,3.30
2022-08-23T19:39:24.620Z,2.83
2022-08-23T19:41:51.406Z,2.83
2022-08-23T19:44:18.026Z,3.00
2022-08-23T19:46:44.964Z,3.20
2022-08-23T19:49:14.801Z,3.20
2022-08-23T19:51:41.650Z,3.30
2022-08-23T19:54:11.107Z,3.33
2022-08-23T19:56:38.499Z,3.10
2022-08-23T19:59:09.308Z,4.87
2022-08-23T20:01:36.414Z,3.47
2022-08-23T20:04:03.138Z,3.87
2022-08-23T20:06:31.648Z,3.93
2022-08-23T20:08:58.482Z,4.30
2022-08-23T20:11:25.185Z,3.60
2022-08-23T20:13:54.050Z,3.90
2022-08-23T20:16:20.799Z,3.30
2022-08-23T20:18:47.945Z,3.77
2022-08-23T20:21:17.957Z,3.90
2022-08-23T20:24:06.497Z,3.10
2022-08-23T20:26:33.899Z,2.80
2022-08-23T20:29:01.022Z,3.37
2022-08-23T20:31:36.395Z,4.10
2022-08-23T20:34:04.699Z,3.30
2022-08-23T20:36:33.283Z,3.30
2022-08-23T20:39:00.577Z,3.47
2022-08-23T20:41:28.474Z,3.13
2022-08-23T20:43:55.409Z,3.07
2022-08-23T20:46:22.346Z,3.07
2022-08-23T20:48:51.820Z,3.20
2022-08-23T20:51:18.865Z,3.43
2022-08-23T20:53:46.766Z,3.20
2022-08-23T20:56:14.518Z,3.27
2022-08-23T20:58:41.404Z,3.70
2022-08-23T21:01:10.175Z,4.20
2022-08-23T21:03:37.926Z,2.80
2022-08-23T21:06:24.307Z,3.17
2022-08-23T21:08:53.959Z,3.63
2022-08-23T21:11:21.951Z,3.53
2022-08-23T21:13:48.539Z,4.23
2022-08-23T21:16:16.176Z,2.93
2022-08-23T21:18:43.079Z,3.60
2022-08-23T21:21:09.726Z,2.77
2022-08-23T21:23:37.357Z,3.27
2022-08-23T21:26:04.963Z,3.53
2022-08-23T21:28:32.204Z,4.17
2022-08-23T21:31:06.617Z,3.80
2022-08-23T21:33:37.918Z,3.20
2022-08-23T21:36:06.726Z,3.77
2022-08-23T21:38:33.265Z,3.20
2022-08-23T21:41:01.264Z,3.30
2022-08-23T21:43:28.984Z,3.37
2022-08-23T21:45:55.841Z,3.20
2022-08-23T21:48:22.441Z,3.07
2022-08-23T21:50:49.045Z,3.30
2022-08-23T21:53:15.897Z,3.57
2022-08-23T21:55:42.654Z,3.60
2022-08-23T21:58:09.519Z,3.03
2022-08-23T22:00:36.567Z,4.43
2022-08-23T22:03:04.834Z,4.20
2022-08-23T22:05:31.610Z,3.67
2022-08-23T22:07:58.185Z,3.73
2022-08-23T22:10:24.760Z,4.07
2022-08-23T22:12:52.767Z,3.60
2022-08-23T22:15:19.340Z,3.37
2022-08-23T22:17:45.867Z,3.63
2022-08-23T22:20:13.615Z,3.53
2022-08-23T22:22:40.187Z,3.93
2022-08-23T22:25:07.076Z,3.63
2022-08-23T22:27:33.622Z,3.37
2022-08-23T22:30:00.216Z,3.80
2022-08-23T22:32:26.716Z,4.70
2022-08-23T22:34:53.541Z,4.80
2022-08-23T22:37:20.167Z,3.40
2022-08-23T22:39:46.736Z,3.60
2022-08-23T22:42:13.806Z,3.93
2022-08-23T22:44:40.642Z,4.10
2022-08-23T22:47:07.189Z,4.03
2022-08-23T22:49:33.905Z,3.57
2022-08-23T22:52:00.640Z,3.90
2022-08-23T22:54:27.141Z,4.17
2022-08-23T22:56:53.787Z,3.60
2022-08-23T22:59:25.239Z,3.77
2022-08-23T23:01:55.072Z,3.43
2022-08-23T23:04:25.125Z,4.10
2022-08-23T23:06:53.176Z,4.43
2022-08-23T23:41:58.173Z,3.53
2022-08-23T23:44:31.704Z,4.13
2022-08-23T23:57:44.825Z,4.27
